sensor_id;sensor_type;location;lat;lon;timestamp;temperature;humidity
27258;DHT22;62045;49.986;8.672;2022-09-03T00:04:09;23.90;38.00
27258;DHT22;62045;49.986;8.672;2022-09-03T00:09:18;23.90;38.10
27258;DHT22;62045;49.986;8.672;2022-09-03T00:14:27;23.90;38.10
27258;DHT22;62045;49.986;8.672;2022-09-03T00:19:36;23.90;38.10
27258;DHT22;62045;49.986;8.672;2022-09-03T00:24:40;23.90;38.10
27258;DHT22;62045;49.986;8.672;2022-09-03T00:29:47;23.90;38.10
27258;DHT22;62045;49.986;8.672;2022-09-03T00:34:51;23.80;38.10
27258;DHT22;62045;49.986;8.672;2022-09-03T00:39:54;23.80;38.10
27258;DHT22;62045;49.986;8.672;2022-09-03T00:45:04;23.80;38.20
27258;DHT22;62045;49.986;8.672;2022-09-03T00:50:16;23.80;38.20
27258;DHT22;62045;49.986;8.672;2022-09-03T00:55:35;23.80;38.20
27258;DHT22;62045;49.986;8.672;2022-09-03T01:00:41;23.80;38.10
27258;DHT22;62045;49.986;8.672;2022-09-03T01:05:58;23.80;38.10
27258;DHT22;62045;49.986;8.672;2022-09-03T01:11:10;23.80;38.10
27258;DHT22;62045;49.986;8.672;2022-09-03T01:16:23;23.80;38.10
27258;DHT22;62045;49.986;8.672;2022-09-03T01:21:47;23.80;38.10
27258;DHT22;62045;49.986;8.672;2022-09-03T01:27:11;23.90;38.10
27258;DHT22;62045;49.986;8.672;2022-09-03T01:32:21;23.90;38.10
27258;DHT22;62045;49.986;8.672;2022-09-03T01:37:32;23.90;38.10
27258;DHT22;62045;49.986;8.672;2022-09-03T01:42:45;23.90;38.10
27258;DHT22;62045;49.986;8.672;2022-09-03T01:48:00;23.90;38.20
27258;DHT22;62045;49.986;8.672;2022-09-03T01:53:08;23.90;38.10
27258;DHT22;62045;49.986;8.672;2022-09-03T01:58:14;23.90;38.10
27258;DHT22;62045;49.986;8.672;2022-09-03T02:03:20;23.80;38.10
27258;DHT22;62045;49.986;8.672;2022-09-03T02:08:21;23.80;38.20
27258;DHT22;62045;49.986;8.672;2022-09-03T02:13:24;23.80;38.30
27258;DHT22;62045;49.986;8.672;2022-09-03T02:18:30;23.80;38.40
27258;DHT22;62045;49.986;8.672;2022-09-03T02:23:32;23.80;38.50
27258;DHT22;62045;49.986;8.672;2022-09-03T02:28:33;23.70;38.60
27258;DHT22;62045;49.986;8.672;2022-09-03T02:33:37;23.70;38.70
27258;DHT22;62045;49.986;8.672;2022-09-03T02:38:40;23.70;38.70
27258;DHT22;62045;49.986;8.672;2022-09-03T02:43:43;23.70;38.70
27258;DHT22;62045;49.986;8.672;2022-09-03T02:48:47;23.70;38.80
27258;DHT22;62045;49.986;8.672;2022-09-03T02:53:47;23.70;38.80
27258;DHT22;62045;49.986;8.672;2022-09-03T02:58:48;23.70;38.90
27258;DHT22;62045;49.986;8.672;2022-09-03T03:03:51;23.60;38.80
27258;DHT22;62045;49.986;8.672;2022-09-03T03:08:52;23.60;38.90
27258;DHT22;62045;49.986;8.672;2022-09-03T03:13:52;23.60;38.90
27258;DHT22;62045;49.986;8.672;2022-09-03T03:18:56;23.60;38.90
27258;DHT22;62045;49.986;8.672;2022-09-03T03:23:57;23.60;38.90
27258;DHT22;62045;49.986;8.672;2022-09-03T03:29:00;23.60;38.90
27258;DHT22;62045;49.986;8.672;2022-09-03T03:34:02;23.60;38.90
27258;DHT22;62045;49.986;8.672;2022-09-03T03:39:03;23.60;38.90
27258;DHT22;62045;49.986;8.672;2022-09-03T03:44:06;23.70;38.90
27258;DHT22;62045;49.986;8.672;2022-09-03T03:49:08;23.70;38.90
27258;DHT22;62045;49.986;8.672;2022-09-03T03:54:09;23.70;38.90
27258;DHT22;62045;49.986;8.672;2022-09-03T03:59:10;23.70;38.90
27258;DHT22;62045;49.986;8.672;2022-09-03T04:04:12;23.70;38.90
27258;DHT22;62045;49.986;8.672;2022-09-03T04:09:13;23.70;38.80
27258;DHT22;62045;49.986;8.672;2022-09-03T04:14:13;23.70;38.90
27258;DHT22;62045;49.986;8.672;2022-09-03T04:19:16;23.70;38.90
27258;DHT22;62045;49.986;8.672;2022-09-03T04:24:17;23.70;38.90
27258;DHT22;62045;49.986;8.672;2022-09-03T04:29:18;23.70;38.90
27258;DHT22;62045;49.986;8.672;2022-09-03T04:34:20;23.70;38.80
27258;DHT22;62045;49.986;8.672;2022-09-03T04:39:21;23.70;38.80
27258;DHT22;62045;49.986;8.672;2022-09-03T04:44:21;23.70;38.80
27258;DHT22;62045;49.986;8.672;2022-09-03T04:49:24;23.70;38.90
27258;DHT22;62045;49.986;8.672;2022-09-03T04:54:24;23.60;38.90
27258;DHT22;62045;49.986;8.672;2022-09-03T04:59:25;23.60;38.90
27258;DHT22;62045;49.986;8.672;2022-09-03T05:04:27;23.60;39.10
27258;DHT22;62045;49.986;8.672;2022-09-03T05:09:28;23.60;39.10
27258;DHT22;62045;49.986;8.672;2022-09-03T05:14:29;23.50;39.10
27258;DHT22;62045;49.986;8.672;2022-09-03T05:19:31;23.50;39.10
27258;DHT22;62045;49.986;8.672;2022-09-03T05:24:32;23.50;39.20
27258;DHT22;62045;49.986;8.672;2022-09-03T05:29:33;23.50;39.20
27258;DHT22;62045;49.986;8.672;2022-09-03T05:34:35;23.50;39.20
27258;DHT22;62045;49.986;8.672;2022-09-03T05:39:36;23.50;39.30
27258;DHT22;62045;49.986;8.672;2022-09-03T05:44:37;23.50;39.30
27258;DHT22;62045;49.986;8.672;2022-09-03T05:49:39;23.50;39.30
27258;DHT22;62045;49.986;8.672;2022-09-03T05:54:40;23.50;39.40
27258;DHT22;62045;49.986;8.672;2022-09-03T05:59:41;23.40;39.40
27258;DHT22;62045;49.986;8.672;2022-09-03T06:04:43;23.40;39.40
27258;DHT22;62045;49.986;8.672;2022-09-03T06:09:44;23.40;39.40
27258;DHT22;62045;49.986;8.672;2022-09-03T06:14:45;23.40;39.50
27258;DHT22;62045;49.986;8.672;2022-09-03T06:19:47;23.40;39.60
27258;DHT22;62045;49.986;8.672;2022-09-03T06:24:48;23.50;39.70
27258;DHT22;62045;49.986;8.672;2022-09-03T06:29:49;23.50;39.70
27258;DHT22;62045;49.986;8.672;2022-09-03T06:34:51;23.50;39.70
27258;DHT22;62045;49.986;8.672;2022-09-03T06:39:52;23.50;39.70
27258;DHT22;62045;49.986;8.672;2022-09-03T06:44:52;23.50;39.80
27258;DHT22;62045;49.986;8.672;2022-09-03T06:49:55;23.50;39.80
27258;DHT22;62045;49.986;8.672;2022-09-03T06:54:55;23.50;39.80
27258;DHT22;62045;49.986;8.672;2022-09-03T06:59:56;23.50;39.80
27258;DHT22;62045;49.986;8.672;2022-09-03T07:04:59;23.50;39.70
27258;DHT22;62045;49.986;8.672;2022-09-03T07:09:59;23.60;39.70
27258;DHT22;62045;49.986;8.672;2022-09-03T07:15:00;23.60;39.70
27258;DHT22;62045;49.986;8.672;2022-09-03T07:20:03;23.50;39.60
27258;DHT22;62045;49.986;8.672;2022-09-03T07:25:05;23.50;39.70
27258;DHT22;62045;49.986;8.672;2022-09-03T07:30:07;23.50;39.70
27258;DHT22;62045;49.986;8.672;2022-09-03T07:35:09;23.50;39.70
27258;DHT22;62045;49.986;8.672;2022-09-03T07:40:10;23.50;39.80
27258;DHT22;62045;49.986;8.672;2022-09-03T07:45:11;23.40;39.80
27258;DHT22;62045;49.986;8.672;2022-09-03T07:50:13;23.40;39.90
27258;DHT22;62045;49.986;8.672;2022-09-03T07:55:14;23.40;40.00
27258;DHT22;62045;49.986;8.672;2022-09-03T08:00:15;23.40;40.00
27258;DHT22;62045;49.986;8.672;2022-09-03T08:05:18;23.40;40.00
27258;DHT22;62045;49.986;8.672;2022-09-03T08:10:18;23.30;40.00
27258;DHT22;62045;49.986;8.672;2022-09-03T08:15:19;23.30;40.10
27258;DHT22;62045;49.986;8.672;2022-09-03T08:20:21;23.30;40.10
27258;DHT22;62045;49.986;8.672;2022-09-03T08:25:22;23.30;40.20
27258;DHT22;62045;49.986;8.672;2022-09-03T08:30:23;23.30;40.30
27258;DHT22;62045;49.986;8.672;2022-09-03T08:35:26;23.30;40.40
27258;DHT22;62045;49.986;8.672;2022-09-03T08:40:27;23.30;40.60
27258;DHT22;62045;49.986;8.672;2022-09-03T08:45:28;23.30;40.80
27258;DHT22;62045;49.986;8.672;2022-09-03T08:50:35;23.30;41.20
27258;DHT22;62045;49.986;8.672;2022-09-03T08:55:40;23.30;41.30
27258;DHT22;62045;49.986;8.672;2022-09-03T09:00:48;23.30;41.40
27258;DHT22;62045;49.986;8.672;2022-09-03T09:05:55;23.30;41.40
27258;DHT22;62045;49.986;8.672;2022-09-03T09:11:05;23.40;41.50
27258;DHT22;62045;49.986;8.672;2022-09-03T09:16:16;23.40;41.60
27258;DHT22;62045;49.986;8.672;2022-09-03T09:21:22;23.40;41.70
27258;DHT22;62045;49.986;8.672;2022-09-03T09:26:27;23.40;41.80
27258;DHT22;62045;49.986;8.672;2022-09-03T09:31:28;23.50;42.00
27258;DHT22;62045;49.986;8.672;2022-09-03T09:36:31;23.50;42.10
27258;DHT22;62045;49.986;8.672;2022-09-03T09:41:37;23.50;42.20
27258;DHT22;62045;49.986;8.672;2022-09-03T09:46:38;23.50;42.20
27258;DHT22;62045;49.986;8.672;2022-09-03T09:51:41;23.50;42.20
27258;DHT22;62045;49.986;8.672;2022-09-03T09:56:42;23.50;42.40
27258;DHT22;62045;49.986;8.672;2022-09-03T10:01:44;23.50;42.50
27258;DHT22;62045;49.986;8.672;2022-09-03T10:06:53;23.50;42.60
27258;DHT22;62045;49.986;8.672;2022-09-03T10:12:04;23.40;42.60
27258;DHT22;62045;49.986;8.672;2022-09-03T10:17:11;23.40;42.60
27258;DHT22;62045;49.986;8.672;2022-09-03T10:22:17;23.40;42.60
27258;DHT22;62045;49.986;8.672;2022-09-03T10:27:19;23.40;42.60
27258;DHT22;62045;49.986;8.672;2022-09-03T10:32:28;23.40;42.60
27258;DHT22;62045;49.986;8.672;2022-09-03T10:37:37;23.30;42.70
27258;DHT22;62045;49.986;8.672;2022-09-03T10:42:43;23.30;42.70
27258;DHT22;62045;49.986;8.672;2022-09-03T10:48:30;23.30;42.70
27258;DHT22;62045;49.986;8.672;2022-09-03T10:53:52;23.40;42.80
27258;DHT22;62045;49.986;8.672;2022-09-03T10:59:07;23.30;42.90
27258;DHT22;62045;49.986;8.672;2022-09-03T11:04:22;23.30;43.10
27258;DHT22;62045;49.986;8.672;2022-09-03T11:09:30;23.30;43.00
27258;DHT22;62045;49.986;8.672;2022-09-03T11:14:40;23.30;42.90
27258;DHT22;62045;49.986;8.672;2022-09-03T11:19:49;23.30;42.80
27258;DHT22;62045;49.986;8.672;2022-09-03T11:24:55;23.40;42.70
27258;DHT22;62045;49.986;8.672;2022-09-03T11:30:02;23.40;42.60
27258;DHT22;62045;49.986;8.672;2022-09-03T11:35:13;23.40;42.50
27258;DHT22;62045;49.986;8.672;2022-09-03T11:40:16;23.50;42.50
27258;DHT22;62045;49.986;8.672;2022-09-03T11:45:32;23.50;42.40
27258;DHT22;62045;49.986;8.672;2022-09-03T11:50:33;23.50;42.40
27258;DHT22;62045;49.986;8.672;2022-09-03T11:55:51;23.50;42.30
27258;DHT22;62045;49.986;8.672;2022-09-03T12:00:52;23.50;42.30
27258;DHT22;62045;49.986;8.672;2022-09-03T12:06:09;23.60;42.20
27258;DHT22;62045;49.986;8.672;2022-09-03T12:11:28;23.60;42.20
27258;DHT22;62045;49.986;8.672;2022-09-03T12:16:59;23.60;42.10
27258;DHT22;62045;49.986;8.672;2022-09-03T12:22:04;23.60;42.00
27258;DHT22;62045;49.986;8.672;2022-09-03T12:27:08;23.60;42.00
27258;DHT22;62045;49.986;8.672;2022-09-03T12:32:12;23.60;41.90
27258;DHT22;62045;49.986;8.672;2022-09-03T12:37:20;23.70;42.00
27258;DHT22;62045;49.986;8.672;2022-09-03T12:42:25;23.70;41.90
27258;DHT22;62045;49.986;8.672;2022-09-03T12:47:27;23.70;41.90
27258;DHT22;62045;49.986;8.672;2022-09-03T12:52:29;23.70;41.80
27258;DHT22;62045;49.986;8.672;2022-09-03T12:57:37;23.70;41.80
27258;DHT22;62045;49.986;8.672;2022-09-03T13:02:43;23.70;41.70
27258;DHT22;62045;49.986;8.672;2022-09-03T13:07:49;23.80;41.70
27258;DHT22;62045;49.986;8.672;2022-09-03T13:12:58;23.80;41.70
27258;DHT22;62045;49.986;8.672;2022-09-03T13:18:18;23.80;41.60
27258;DHT22;62045;49.986;8.672;2022-09-03T13:23:35;23.80;41.70
27258;DHT22;62045;49.986;8.672;2022-09-03T13:28:49;23.70;41.60
27258;DHT22;62045;49.986;8.672;2022-09-03T13:34:00;23.70;41.70
27258;DHT22;62045;49.986;8.672;2022-09-03T13:39:06;23.70;41.70
27258;DHT22;62045;49.986;8.672;2022-09-03T13:44:17;23.70;41.70
27258;DHT22;62045;49.986;8.672;2022-09-03T13:49:29;23.70;42.20
27258;DHT22;62045;49.986;8.672;2022-09-03T13:54:38;23.70;42.50
27258;DHT22;62045;49.986;8.672;2022-09-03T13:59:47;23.70;42.70
27258;DHT22;62045;49.986;8.672;2022-09-03T14:05:00;23.70;42.70
27258;DHT22;62045;49.986;8.672;2022-09-03T14:10:08;23.70;42.60
27258;DHT22;62045;49.986;8.672;2022-09-03T14:15:17;23.70;42.50
27258;DHT22;62045;49.986;8.672;2022-09-03T14:20:23;23.60;42.40
27258;DHT22;62045;49.986;8.672;2022-09-03T14:25:26;23.60;42.40
27258;DHT22;62045;49.986;8.672;2022-09-03T14:30:39;23.60;42.70
27258;DHT22;62045;49.986;8.672;2022-09-03T14:35:56;23.60;43.10
27258;DHT22;62045;49.986;8.672;2022-09-03T14:41:05;23.70;43.50
27258;DHT22;62045;49.986;8.672;2022-09-03T14:46:20;23.70;43.70
27258;DHT22;62045;49.986;8.672;2022-09-03T14:51:30;23.70;44.30
27258;DHT22;62045;49.986;8.672;2022-09-03T14:56:39;23.70;44.30
27258;DHT22;62045;49.986;8.672;2022-09-03T15:01:52;23.70;44.20
27258;DHT22;62045;49.986;8.672;2022-09-03T15:07:15;23.70;44.10
27258;DHT22;62045;49.986;8.672;2022-09-03T15:12:21;23.80;44.00
27258;DHT22;62045;49.986;8.672;2022-09-03T15:17:45;23.80;44.00
27258;DHT22;62045;49.986;8.672;2022-09-03T15:23:10;23.80;43.90
27258;DHT22;62045;49.986;8.672;2022-09-03T15:28:20;23.90;43.90
27258;DHT22;62045;49.986;8.672;2022-09-03T15:33:34;23.90;43.90
27258;DHT22;62045;49.986;8.672;2022-09-03T15:38:41;23.90;44.00
27258;DHT22;62045;49.986;8.672;2022-09-03T15:43:47;23.90;44.00
27258;DHT22;62045;49.986;8.672;2022-09-03T15:48:57;23.90;43.80
27258;DHT22;62045;49.986;8.672;2022-09-03T15:54:06;24.00;43.80
27258;DHT22;62045;49.986;8.672;2022-09-03T15:59:15;24.00;43.70
27258;DHT22;62045;49.986;8.672;2022-09-03T16:04:34;24.00;43.60
27258;DHT22;62045;49.986;8.672;2022-09-03T16:09:52;24.00;43.50
27258;DHT22;62045;49.986;8.672;2022-09-03T16:14:59;24.00;44.10
27258;DHT22;62045;49.986;8.672;2022-09-03T16:20:07;24.00;43.40
27258;DHT22;62045;49.986;8.672;2022-09-03T16:25:16;24.00;44.30
27258;DHT22;62045;49.986;8.672;2022-09-03T16:30:27;24.10;43.80
27258;DHT22;62045;49.986;8.672;2022-09-03T16:35:39;24.10;43.70
27258;DHT22;62045;49.986;8.672;2022-09-03T16:40:47;24.10;43.70
27258;DHT22;62045;49.986;8.672;2022-09-03T16:46:02;24.00;43.60
27258;DHT22;62045;49.986;8.672;2022-09-03T16:51:12;24.00;43.60
27258;DHT22;62045;49.986;8.672;2022-09-03T16:56:30;24.00;43.60
27258;DHT22;62045;49.986;8.672;2022-09-03T17:01:46;24.00;43.50
27258;DHT22;62045;49.986;8.672;2022-09-03T17:07:05;23.90;43.50
27258;DHT22;62045;49.986;8.672;2022-09-03T17:12:15;23.90;43.50
27258;DHT22;62045;49.986;8.672;2022-09-03T17:17:30;23.90;43.60
27258;DHT22;62045;49.986;8.672;2022-09-03T17:22:47;23.90;43.70
27258;DHT22;62045;49.986;8.672;2022-09-03T17:28:02;23.90;43.70
27258;DHT22;62045;49.986;8.672;2022-09-03T17:33:15;23.90;43.60
27258;DHT22;62045;49.986;8.672;2022-09-03T17:43:50;23.80;43.60
27258;DHT22;62045;49.986;8.672;2022-09-03T17:48:53;23.90;43.60
27258;DHT22;62045;49.986;8.672;2022-09-03T17:54:03;23.80;43.60
27258;DHT22;62045;49.986;8.672;2022-09-03T17:59:09;23.80;43.60
27258;DHT22;62045;49.986;8.672;2022-09-03T18:04:16;23.80;43.60
27258;DHT22;62045;49.986;8.672;2022-09-03T18:09:25;23.80;43.50
27258;DHT22;62045;49.986;8.672;2022-09-03T18:14:34;23.80;43.50
27258;DHT22;62045;49.986;8.672;2022-09-03T18:19:41;23.80;43.50
27258;DHT22;62045;49.986;8.672;2022-09-03T18:24:50;23.80;43.50
27258;DHT22;62045;49.986;8.672;2022-09-03T18:29:56;23.80;43.60
27258;DHT22;62045;49.986;8.672;2022-09-03T18:34:58;23.80;43.50
27258;DHT22;62045;49.986;8.672;2022-09-03T18:40:00;23.90;43.60
27258;DHT22;62045;49.986;8.672;2022-09-03T18:45:06;23.90;43.60
27258;DHT22;62045;49.986;8.672;2022-09-03T18:50:16;23.90;43.50
27258;DHT22;62045;49.986;8.672;2022-09-03T18:55:26;23.90;43.50
27258;DHT22;62045;49.986;8.672;2022-09-03T19:00:33;23.90;43.60
27258;DHT22;62045;49.986;8.672;2022-09-03T19:05:40;23.90;43.60
27258;DHT22;62045;49.986;8.672;2022-09-03T19:10:47;24.00;43.60
27258;DHT22;62045;49.986;8.672;2022-09-03T19:15:57;24.00;43.50
27258;DHT22;62045;49.986;8.672;2022-09-03T19:21:06;24.00;43.50
27258;DHT22;62045;49.986;8.672;2022-09-03T19:26:19;24.00;43.40
27258;DHT22;62045;49.986;8.672;2022-09-03T19:31:39;24.10;43.40
27258;DHT22;62045;49.986;8.672;2022-09-03T19:36:46;24.00;43.40
27258;DHT22;62045;49.986;8.672;2022-09-03T19:41:56;24.00;43.40
27258;DHT22;62045;49.986;8.672;2022-09-03T19:47:03;24.00;43.30
27258;DHT22;62045;49.986;8.672;2022-09-03T19:52:09;23.90;43.30
27258;DHT22;62045;49.986;8.672;2022-09-03T19:57:15;24.00;43.40
27258;DHT22;62045;49.986;8.672;2022-09-03T20:02:17;23.90;43.30
27258;DHT22;62045;49.986;8.672;2022-09-03T20:07:20;23.90;43.30
27258;DHT22;62045;49.986;8.672;2022-09-03T20:12:24;23.90;43.30
27258;DHT22;62045;49.986;8.672;2022-09-03T20:17:33;23.90;43.90
27258;DHT22;62045;49.986;8.672;2022-09-03T20:22:40;23.90;43.50
27258;DHT22;62045;49.986;8.672;2022-09-03T20:27:51;23.90;43.80
27258;DHT22;62045;49.986;8.672;2022-09-03T20:33:11;23.90;43.80
27258;DHT22;62045;49.986;8.672;2022-09-03T20:38:30;23.90;43.80
27258;DHT22;62045;49.986;8.672;2022-09-03T20:43:59;23.80;43.70
27258;DHT22;62045;49.986;8.672;2022-09-03T20:49:10;23.80;43.60
27258;DHT22;62045;49.986;8.672;2022-09-03T20:54:20;23.80;43.60
27258;DHT22;62045;49.986;8.672;2022-09-03T20:59:32;23.80;43.60
27258;DHT22;62045;49.986;8.672;2022-09-03T21:04:47;23.80;43.60
27258;DHT22;62045;49.986;8.672;2022-09-03T21:09:54;23.70;43.50
27258;DHT22;62045;49.986;8.672;2022-09-03T21:15:04;23.70;43.50
27258;DHT22;62045;49.986;8.672;2022-09-03T21:20:16;23.80;43.50
27258;DHT22;62045;49.986;8.672;2022-09-03T21:25:25;23.70;43.70
27258;DHT22;62045;49.986;8.672;2022-09-03T21:30:34;23.80;43.70
27258;DHT22;62045;49.986;8.672;2022-09-03T21:35:41;23.80;43.70
27258;DHT22;62045;49.986;8.672;2022-09-03T21:40:46;23.80;43.60
27258;DHT22;62045;49.986;8.672;2022-09-03T21:45:54;23.80;43.60
27258;DHT22;62045;49.986;8.672;2022-09-03T21:50:59;23.90;43.60
27258;DHT22;62045;49.986;8.672;2022-09-03T21:56:07;23.90;43.60
27258;DHT22;62045;49.986;8.672;2022-09-03T22:01:17;23.90;43.60
27258;DHT22;62045;49.986;8.672;2022-09-03T22:06:22;23.90;43.50
27258;DHT22;62045;49.986;8.672;2022-09-03T22:11:28;23.90;43.50
27258;DHT22;62045;49.986;8.672;2022-09-03T22:16:36;23.90;43.40
27258;DHT22;62045;49.986;8.672;2022-09-03T22:21:53;23.90;43.40
27258;DHT22;62045;49.986;8.672;2022-09-03T22:26:56;23.90;43.40
27258;DHT22;62045;49.986;8.672;2022-09-03T22:32:08;23.90;43.40
27258;DHT22;62045;49.986;8.672;2022-09-03T22:37:18;23.90;43.40
27258;DHT22;62045;49.986;8.672;2022-09-03T22:42:35;23.80;43.30
27258;DHT22;62045;49.986;8.672;2022-09-03T22:47:50;23.80;43.40
27258;DHT22;62045;49.986;8.672;2022-09-03T22:53:00;23.80;43.40
27258;DHT22;62045;49.986;8.672;2022-09-03T22:58:06;23.80;43.30
27258;DHT22;62045;49.986;8.672;2022-09-03T23:03:14;23.70;43.30
27258;DHT22;62045;49.986;8.672;2022-09-03T23:08:20;23.80;43.40
27258;DHT22;62045;49.986;8.672;2022-09-03T23:13:27;23.70;43.40
27258;DHT22;62045;49.986;8.672;2022-09-03T23:18:33;23.70;43.40
27258;DHT22;62045;49.986;8.672;2022-09-03T23:23:39;23.70;43.40
27258;DHT22;62045;49.986;8.672;2022-09-03T23:28:44;23.70;43.40
27258;DHT22;62045;49.986;8.672;2022-09-03T23:33:49;23.70;43.40
27258;DHT22;62045;49.986;8.672;2022-09-03T23:38:59;23.70;43.40
27258;DHT22;62045;49.986;8.672;2022-09-03T23:44:10;23.60;43.40
27258;DHT22;62045;49.986;8.672;2022-09-03T23:49:26;23.60;43.40
27258;DHT22;62045;49.986;8.672;2022-09-03T23:54:31;23.60;43.40
27258;DHT22;62045;49.986;8.672;2022-09-03T23:59:50;23.60;43.40
